sensor_id;sensor_type;location;lat;lon;timestamp;pressure;altitude;pressure_sealevel;temperature;humidity
37634;BME280;32048;49.902;22.508;2023-03-03T00:01:54;98952.38;;;-4.49;100.00
37634;BME280;32048;49.902;22.508;2023-03-03T00:04:21;98955.78;;;-4.49;100.00
37634;BME280;32048;49.902;22.508;2023-03-03T00:06:48;98959.25;;;-4.50;100.00
37634;BME280;32048;49.902;22.508;2023-03-03T00:09:15;98964.34;;;-4.53;100.00
37634;BME280;32048;49.902;22.508;2023-03-03T00:11:42;98953.22;;;-4.50;100.00
37634;BME280;32048;49.902;22.508;2023-03-03T00:14:31;98947.22;;;-4.48;100.00
37634;BME280;32048;49.902;22.508;2023-03-03T00:19:50;98949.94;;;-4.37;100.00
37634;BME280;32048;49.902;22.508;2023-03-03T00:22:30;98948.25;;;-4.32;100.00
37634;BME280;32048;49.902;22.508;2023-03-03T00:25:28;98943.16;;;-4.27;100.00
37634;BME280;32048;49.902;22.508;2023-03-03T00:30:55;98944.16;;;-4.13;100.00
37634;BME280;32048;49.902;22.508;2023-03-03T00:33:27;98948.53;;;-4.06;100.00
37634;BME280;32048;49.902;22.508;2023-03-03T00:35:56;98947.72;;;-3.97;100.00
37634;BME280;32048;49.902;22.508;2023-03-03T00:38:23;98946.06;;;-3.90;100.00
37634;BME280;32048;49.902;22.508;2023-03-03T00:40:50;98941.84;;;-3.84;100.00
37634;BME280;32048;49.902;22.508;2023-03-03T00:43:22;98935.88;;;-3.75;100.00
37634;BME280;32048;49.902;22.508;2023-03-03T00:45:56;98946.28;;;-3.67;100.00
37634;BME280;32048;49.902;22.508;2023-03-03T00:53:49;98934.34;;;-3.50;100.00
37634;BME280;32048;49.902;22.508;2023-03-03T00:56:16;98926.69;;;-3.42;100.00
37634;BME280;32048;49.902;22.508;2023-03-03T00:58:43;98931.03;;;-3.35;100.00
37634;BME280;32048;49.902;22.508;2023-03-03T01:01:14;98931.94;;;-3.25;100.00
37634;BME280;32048;49.902;22.508;2023-03-03T01:03:42;98932.84;;;-3.17;100.00
37634;BME280;32048;49.902;22.508;2023-03-03T01:06:09;98934.63;;;-3.10;100.00
37634;BME280;32048;49.902;22.508;2023-03-03T01:08:37;98928.63;;;-3.04;100.00
37634;BME280;32048;49.902;22.508;2023-03-03T01:11:25;98932.09;;;-2.99;100.00
37634;BME280;32048;49.902;22.508;2023-03-03T01:13:55;98931.25;;;-2.92;100.00
37634;BME280;32048;49.902;22.508;2023-03-03T01:16:22;98936.44;;;-2.90;100.00
37634;BME280;32048;49.902;22.508;2023-03-03T01:18:50;98937.34;;;-2.87;100.00
37634;BME280;32048;49.902;22.508;2023-03-03T01:21:17;98938.22;;;-2.82;100.00
37634;BME280;32048;49.902;22.508;2023-03-03T01:23:44;98928.75;;;-2.72;100.00
37634;BME280;32048;49.902;22.508;2023-03-03T01:26:11;98930.53;;;-2.62;100.00
37634;BME280;32048;49.902;22.508;2023-03-03T01:28:38;98940.03;;;-2.55;100.00
37634;BME280;32048;49.902;22.508;2023-03-03T01:31:05;98935.75;;;-2.49;100.00
37634;BME280;32048;49.902;22.508;2023-03-03T01:33:33;98932.31;;;-2.45;100.00
37634;BME280;32048;49.902;22.508;2023-03-03T01:36:01;98930.63;;;-2.42;100.00
37634;BME280;32048;49.902;22.508;2023-03-03T01:38:29;98932.34;;;-2.35;100.00
37634;BME280;32048;49.902;22.508;2023-03-03T01:40:57;98930.63;;;-2.28;100.00
37634;BME280;32048;49.902;22.508;2023-03-03T01:43:25;98930.66;;;-2.23;100.00
37634;BME280;32048;49.902;22.508;2023-03-03T01:48:35;98933.28;;;-2.08;100.00
37634;BME280;32048;49.902;22.508;2023-03-03T01:51:20;98935.84;;;-2.02;100.00
37634;BME280;32048;49.902;22.508;2023-03-03T01:53:55;98935.88;;;-1.94;100.00
37634;BME280;32048;49.902;22.508;2023-03-03T01:56:24;98934.16;;;-1.88;100.00
37634;BME280;32048;49.902;22.508;2023-03-03T01:59:19;98925.53;;;-1.83;100.00
37634;BME280;32048;49.902;22.508;2023-03-03T02:01:47;98929.84;;;-1.78;100.00
37634;BME280;32048;49.902;22.508;2023-03-03T02:04:16;98936.75;;;-1.74;100.00
37634;BME280;32048;49.902;22.508;2023-03-03T02:06:48;98924.69;;;-1.70;100.00
37634;BME280;32048;49.902;22.508;2023-03-03T02:09:28;98925.53;;;-1.68;100.00
37634;BME280;32048;49.902;22.508;2023-03-03T02:12:00;98918.63;;;-1.64;100.00
37634;BME280;32048;49.902;22.508;2023-03-03T02:14:28;98925.53;;;-1.63;100.00
37634;BME280;32048;49.902;22.508;2023-03-03T02:16:56;98927.22;;;-1.59;100.00
37634;BME280;32048;49.902;22.508;2023-03-03T02:19:33;98922.06;;;-1.59;100.00
37634;BME280;32048;49.902;22.508;2023-03-03T02:22:03;98921.19;;;-1.60;100.00
37634;BME280;32048;49.902;22.508;2023-03-03T02:24:48;98914.28;;;-1.59;100.00
37634;BME280;32048;49.902;22.508;2023-03-03T02:27:17;98910.88;;;-1.61;100.00
37634;BME280;32048;49.902;22.508;2023-03-03T02:29:44;98911.72;;;-1.62;100.00
37634;BME280;32048;49.902;22.508;2023-03-03T02:32:11;98908.25;;;-1.64;100.00
37634;BME280;32048;49.902;22.508;2023-03-03T02:34:49;98909.13;;;-1.65;100.00
37634;BME280;32048;49.902;22.508;2023-03-03T02:37:17;98913.44;;;-1.64;100.00
37634;BME280;32048;49.902;22.508;2023-03-03T02:39:45;98916.03;;;-1.60;100.00
37634;BME280;32048;49.902;22.508;2023-03-03T02:42:26;98908.25;;;-1.63;100.00
37634;BME280;32048;49.902;22.508;2023-03-03T02:44:55;98912.59;;;-1.65;100.00
37634;BME280;32048;49.902;22.508;2023-03-03T02:47:22;98916.91;;;-1.65;100.00
37634;BME280;32048;49.902;22.508;2023-03-03T02:49:49;98911.72;;;-1.67;100.00
37634;BME280;32048;49.902;22.508;2023-03-03T02:52:16;98915.16;;;-1.67;100.00
37634;BME280;32048;49.902;22.508;2023-03-03T02:54:45;98918.63;;;-1.69;100.00
37634;BME280;32048;49.902;22.508;2023-03-03T02:57:12;98911.72;;;-1.69;100.00
37634;BME280;32048;49.902;22.508;2023-03-03T02:59:39;98911.72;;;-1.69;100.00
37634;BME280;32048;49.902;22.508;2023-03-03T03:02:06;98908.25;;;-1.69;100.00
37634;BME280;32048;49.902;22.508;2023-03-03T03:04:34;98903.94;;;-1.69;100.00
37634;BME280;32048;49.902;22.508;2023-03-03T03:07:01;98901.34;;;-1.69;100.00
37634;BME280;32048;49.902;22.508;2023-03-03T03:09:29;98898.78;;;-1.67;100.00
37634;BME280;32048;49.902;22.508;2023-03-03T03:11:56;98900.50;;;-1.68;100.00
37634;BME280;32048;49.902;22.508;2023-03-03T03:14:25;98899.63;;;-1.70;100.00
37634;BME280;32048;49.902;22.508;2023-03-03T03:16:52;98893.59;;;-1.70;100.00
37634;BME280;32048;49.902;22.508;2023-03-03T03:19:19;98891.88;;;-1.71;100.00
37634;BME280;32048;49.902;22.508;2023-03-03T03:21:47;98898.78;;;-1.72;100.00
37634;BME280;32048;49.902;22.508;2023-03-03T03:24:14;98894.44;;;-1.73;100.00
37634;BME280;32048;49.902;22.508;2023-03-03T03:26:41;98897.03;;;-1.73;100.00
37634;BME280;32048;49.902;22.508;2023-03-03T03:29:08;98902.22;;;-1.74;100.00
37634;BME280;32048;49.902;22.508;2023-03-03T03:31:36;98903.09;;;-1.74;100.00
37634;BME280;32048;49.902;22.508;2023-03-03T03:34:03;98893.59;;;-1.73;100.00
37634;BME280;32048;49.902;22.508;2023-03-03T03:36:30;98892.72;;;-1.71;100.00
37634;BME280;32048;49.902;22.508;2023-03-03T03:38:57;98883.25;;;-1.70;100.00
37634;BME280;32048;49.902;22.508;2023-03-03T03:41:24;98884.94;;;-1.71;100.00
37634;BME280;32048;49.902;22.508;2023-03-03T03:43:52;98878.91;;;-1.71;100.00
37634;BME280;32048;49.902;22.508;2023-03-03T03:46:18;98872.00;;;-1.71;100.00
37634;BME280;32048;49.902;22.508;2023-03-03T03:48:46;98879.78;;;-1.68;100.00
37634;BME280;32048;49.902;22.508;2023-03-03T03:51:13;98881.50;;;-1.65;100.00
37634;BME280;32048;49.902;22.508;2023-03-03T03:53:40;98874.59;;;-1.66;100.00
37634;BME280;32048;49.902;22.508;2023-03-03T03:56:07;98878.03;;;-1.64;100.00
37634;BME280;32048;49.902;22.508;2023-03-03T03:58:34;98875.44;;;-1.59;100.00
37634;BME280;32048;49.902;22.508;2023-03-03T04:01:03;98869.44;;;-1.61;100.00
37634;BME280;32048;49.902;22.508;2023-03-03T04:03:32;98866.81;;;-1.60;100.00
37634;BME280;32048;49.902;22.508;2023-03-03T04:05:59;98866.81;;;-1.60;100.00
37634;BME280;32048;49.902;22.508;2023-03-03T04:08:26;98864.25;;;-1.60;100.00
37634;BME280;32048;49.902;22.508;2023-03-03T04:10:53;98861.66;;;-1.60;100.00
37634;BME280;32048;49.902;22.508;2023-03-03T04:13:20;98856.47;;;-1.58;100.00
37634;BME280;32048;49.902;22.508;2023-03-03T04:15:47;98848.69;;;-1.60;100.00
37634;BME280;32048;49.902;22.508;2023-03-03T04:18:14;98852.16;;;-1.56;100.00
37634;BME280;32048;49.902;22.508;2023-03-03T04:20:41;98859.06;;;-1.57;100.00
37634;BME280;32048;49.902;22.508;2023-03-03T04:23:09;98855.59;;;-1.57;100.00
37634;BME280;32048;49.902;22.508;2023-03-03T04:25:36;98853.03;;;-1.59;100.00
37634;BME280;32048;49.902;22.508;2023-03-03T04:28:03;98857.34;;;-1.58;100.00
37634;BME280;32048;49.902;22.508;2023-03-03T04:30:31;98853.88;;;-1.55;100.00
37634;BME280;32048;49.902;22.508;2023-03-03T04:32:58;98858.19;;;-1.53;100.00
37634;BME280;32048;49.902;22.508;2023-03-03T04:35:25;98851.28;;;-1.54;100.00
37634;BME280;32048;49.902;22.508;2023-03-03T04:37:53;98845.22;;;-1.53;100.00
37634;BME280;32048;49.902;22.508;2023-03-03T04:40:20;98846.09;;;-1.54;100.00
37634;BME280;32048;49.902;22.508;2023-03-03T04:42:47;98840.06;;;-1.54;100.00
37634;BME280;32048;49.902;22.508;2023-03-03T04:45:14;98841.81;;;-1.56;100.00
37634;BME280;32048;49.902;22.508;2023-03-03T04:47:42;98838.34;;;-1.54;100.00
37634;BME280;32048;49.902;22.508;2023-03-03T04:50:10;98839.19;;;-1.55;100.00
37634;BME280;32048;49.902;22.508;2023-03-03T04:52:37;98829.69;;;-1.51;100.00
37634;BME280;32048;49.902;22.508;2023-03-03T04:55:05;98835.72;;;-1.51;100.00
37634;BME280;32048;49.902;22.508;2023-03-03T04:57:36;98832.25;;;-1.48;100.00
37634;BME280;32048;49.902;22.508;2023-03-03T05:00:03;98840.91;;;-1.46;100.00
37634;BME280;32048;49.902;22.508;2023-03-03T05:02:32;98824.50;;;-1.47;100.00
37634;BME280;32048;49.902;22.508;2023-03-03T05:04:59;98835.72;;;-1.44;100.00
37634;BME280;32048;49.902;22.508;2023-03-03T05:07:27;98840.03;;;-1.42;100.00
37634;BME280;32048;49.902;22.508;2023-03-03T05:09:53;98831.41;;;-1.41;100.00
37634;BME280;32048;49.902;22.508;2023-03-03T05:12:21;98844.38;;;-1.41;100.00
37634;BME280;32048;49.902;22.508;2023-03-03T05:14:47;98840.00;;;-1.37;100.00
37634;BME280;32048;49.902;22.508;2023-03-03T05:17:15;98833.09;;;-1.37;100.00
37634;BME280;32048;49.902;22.508;2023-03-03T05:19:42;98849.50;;;-1.35;100.00
37634;BME280;32048;49.902;22.508;2023-03-03T05:22:09;98844.31;;;-1.33;100.00
37634;BME280;32048;49.902;22.508;2023-03-03T05:24:36;98851.22;;;-1.29;100.00
37634;BME280;32048;49.902;22.508;2023-03-03T05:27:03;98849.50;;;-1.29;100.00
37634;BME280;32048;49.902;22.508;2023-03-03T05:29:30;98851.22;;;-1.26;100.00
37634;BME280;32048;49.902;22.508;2023-03-03T05:31:57;98855.53;;;-1.27;100.00
37634;BME280;32048;49.902;22.508;2023-03-03T05:34:24;98855.53;;;-1.25;100.00
37634;BME280;32048;49.902;22.508;2023-03-03T05:36:52;98854.66;;;-1.24;100.00
37634;BME280;32048;49.902;22.508;2023-03-03T05:39:19;98852.94;;;-1.23;100.00
37634;BME280;32048;49.902;22.508;2023-03-03T05:41:46;98858.97;;;-1.20;100.00
37634;BME280;32048;49.902;22.508;2023-03-03T05:44:13;98856.38;;;-1.18;100.00
37634;BME280;32048;49.902;22.508;2023-03-03T05:46:40;98858.94;;;-1.15;100.00
37634;BME280;32048;49.902;22.508;2023-03-03T05:49:08;98854.66;;;-1.18;100.00
37634;BME280;32048;49.902;22.508;2023-03-03T05:51:35;98861.53;;;-1.15;100.00
37634;BME280;32048;49.902;22.508;2023-03-03T05:54:02;98863.28;;;-1.14;100.00
37634;BME280;32048;49.902;22.508;2023-03-03T05:56:29;98863.28;;;-1.14;100.00
37634;BME280;32048;49.902;22.508;2023-03-03T05:58:56;98850.31;;;-1.11;100.00
37634;BME280;32048;49.902;22.508;2023-03-03T06:01:23;98852.91;;;-1.10;100.00
37634;BME280;32048;49.902;22.508;2023-03-03T06:03:50;98859.81;;;-1.07;100.00
37634;BME280;32048;49.902;22.508;2023-03-03T06:06:18;98855.47;;;-1.08;100.00
37634;BME280;32048;49.902;22.508;2023-03-03T06:08:44;98860.66;;;-1.08;100.00
37634;BME280;32048;49.902;22.508;2023-03-03T06:11:12;98866.69;;;-1.05;100.00
37634;BME280;32048;49.902;22.508;2023-03-03T06:13:39;98867.56;;;-1.02;100.00
37634;BME280;32048;49.902;22.508;2023-03-03T06:16:08;98867.53;;;-0.99;100.00
37634;BME280;32048;49.902;22.508;2023-03-03T06:18:36;98875.31;;;-0.96;100.00
37634;BME280;32048;49.902;22.508;2023-03-03T06:21:03;98869.25;;;-0.95;100.00
37634;BME280;32048;49.902;22.508;2023-03-03T06:23:30;98867.53;;;-0.93;100.00
37634;BME280;32048;49.902;22.508;2023-03-03T06:25:57;98864.06;;;-0.94;100.00
37634;BME280;32048;49.902;22.508;2023-03-03T06:28:24;98868.38;;;-0.91;100.00
37634;BME280;32048;49.902;22.508;2023-03-03T06:30:53;98858.84;;;-0.88;100.00
37634;BME280;32048;49.902;22.508;2023-03-03T06:33:21;98859.72;;;-0.87;100.00
37634;BME280;32048;49.902;22.508;2023-03-03T06:35:49;98862.28;;;-0.82;100.00
37634;BME280;32048;49.902;22.508;2023-03-03T06:38:17;98863.16;;;-0.80;100.00
37634;BME280;32048;49.902;22.508;2023-03-03T06:40:45;98864.84;;;-0.76;100.00
37634;BME280;32048;49.902;22.508;2023-03-03T06:43:13;98851.88;;;-0.75;100.00
37634;BME280;32048;49.902;22.508;2023-03-03T06:45:40;98855.31;;;-0.74;100.00
37634;BME280;32048;49.902;22.508;2023-03-03T06:48:07;98857.03;;;-0.67;100.00
37634;BME280;32048;49.902;22.508;2023-03-03T06:50:34;98851.78;;;-0.61;100.00
37634;BME280;32048;49.902;22.508;2023-03-03T06:53:13;98863.84;;;-0.51;100.00
37634;BME280;32048;49.902;22.508;2023-03-03T06:55:42;98858.59;;;-0.43;100.00
37634;BME280;32048;49.902;22.508;2023-03-03T06:58:19;98865.50;;;-0.36;100.00
37634;BME280;32048;49.902;22.508;2023-03-03T07:01:00;98856.81;;;-0.30;100.00
37634;BME280;32048;49.902;22.508;2023-03-03T07:03:33;98857.66;;;-0.28;100.00
37634;BME280;32048;49.902;22.508;2023-03-03T07:06:01;98868.00;;;-0.24;100.00
37634;BME280;32048;49.902;22.508;2023-03-03T07:08:32;98861.94;;;-0.19;100.00
37634;BME280;32048;49.902;22.508;2023-03-03T07:11:07;98860.16;;;-0.14;100.00
37634;BME280;32048;49.902;22.508;2023-03-03T07:13:39;98866.16;;;-0.06;100.00
37634;BME280;32048;49.902;22.508;2023-03-03T07:16:11;98871.31;;;-0.02;100.00
37634;BME280;32048;49.902;22.508;2023-03-03T07:18:58;98865.22;;;0.03;100.00
37634;BME280;32048;49.902;22.508;2023-03-03T07:21:34;98865.22;;;-0.01;100.00
37634;BME280;32048;49.902;22.508;2023-03-03T07:24:21;98866.97;;;0.01;100.00
37634;BME280;32048;49.902;22.508;2023-03-03T07:26:52;98862.59;;;0.06;100.00
37634;BME280;32048;49.902;22.508;2023-03-03T07:29:24;98868.66;;;0.06;100.00
37634;BME280;32048;49.902;22.508;2023-03-03T07:31:54;98865.16;;;0.10;100.00
37634;BME280;32048;49.902;22.508;2023-03-03T07:36:52;98864.22;;;0.17;100.00
37634;BME280;32048;49.902;22.508;2023-03-03T07:39:39;98871.13;;;0.20;100.00
37634;BME280;32048;49.902;22.508;2023-03-03T07:42:38;98862.41;;;0.29;100.00
37634;BME280;32048;49.902;22.508;2023-03-03T07:45:28;98864.09;;;0.31;100.00
37634;BME280;32048;49.902;22.508;2023-03-03T07:50:40;98863.94;;;0.50;100.00
37634;BME280;32048;49.902;22.508;2023-03-03T07:53:31;98865.56;;;0.61;100.00
37634;BME280;32048;49.902;22.508;2023-03-03T07:56:00;98868.00;;;0.74;100.00
37634;BME280;32048;49.902;22.508;2023-03-03T07:58:36;98866.19;;;0.83;100.00
37634;BME280;32048;49.902;22.508;2023-03-03T08:01:37;98866.09;;;0.90;100.00
37634;BME280;32048;49.902;22.508;2023-03-03T08:04:14;98867.75;;;0.98;100.00
37634;BME280;32048;49.902;22.508;2023-03-03T08:06:49;98869.44;;;1.02;100.00
37634;BME280;32048;49.902;22.508;2023-03-03T08:14:51;98852.66;;;1.28;100.00
37634;BME280;32048;49.902;22.508;2023-03-03T08:17:22;98851.63;;;1.40;100.00
37634;BME280;32048;49.902;22.508;2023-03-03T08:19:51;98841.88;;;1.54;100.00
37634;BME280;32048;49.902;22.508;2023-03-03T08:22:34;98850.47;;;1.61;100.00
37634;BME280;32048;49.902;22.508;2023-03-03T08:25:02;98849.47;;;1.68;100.00
37634;BME280;32048;49.902;22.508;2023-03-03T08:27:29;98848.47;;;1.80;100.00
37634;BME280;32048;49.902;22.508;2023-03-03T08:29:57;98860.34;;;1.96;100.00
37634;BME280;32048;49.902;22.508;2023-03-03T08:32:24;98863.66;;;2.07;100.00
37634;BME280;32048;49.902;22.508;2023-03-03T08:34:51;98864.34;;;2.19;100.00
37634;BME280;32048;49.902;22.508;2023-03-03T08:37:18;98873.75;;;2.27;100.00
37634;BME280;32048;49.902;22.508;2023-03-03T08:39:45;98871.09;;;2.31;100.00
37634;BME280;32048;49.902;22.508;2023-03-03T08:42:12;98879.88;;;2.25;100.00
37634;BME280;32048;49.902;22.508;2023-03-03T08:44:42;98878.97;;;2.27;100.00
37634;BME280;32048;49.902;22.508;2023-03-03T08:47:09;98882.25;;;2.37;100.00
37634;BME280;32048;49.902;22.508;2023-03-03T08:49:36;98874.28;;;2.46;100.00
37634;BME280;32048;49.902;22.508;2023-03-03T08:52:03;98875.97;;;2.50;100.00
37634;BME280;32048;49.902;22.508;2023-03-03T08:54:30;98877.53;;;2.59;100.00
37634;BME280;32048;49.902;22.508;2023-03-03T08:56:57;98871.38;;;2.65;100.00
37634;BME280;32048;49.902;22.508;2023-03-03T08:59:25;98873.09;;;2.64;100.00
37634;BME280;32048;49.902;22.508;2023-03-03T09:01:52;98866.19;;;2.63;100.00
37634;BME280;32048;49.902;22.508;2023-03-03T09:04:19;98871.50;;;2.57;100.00
37634;BME280;32048;49.902;22.508;2023-03-03T09:06:46;98878.47;;;2.57;100.00
37634;BME280;32048;49.902;22.508;2023-03-03T09:09:14;98873.31;;;2.54;100.00
37634;BME280;32048;49.902;22.508;2023-03-03T09:11:41;98882.00;;;2.54;100.00
37634;BME280;32048;49.902;22.508;2023-03-03T09:14:11;98876.13;;;2.41;100.00
37634;BME280;32048;49.902;22.508;2023-03-03T09:16:51;98884.09;;;2.32;100.00
37634;BME280;32048;49.902;22.508;2023-03-03T09:21:50;98879.97;;;2.19;100.00
37634;BME280;32048;49.902;22.508;2023-03-03T09:24:26;98882.63;;;2.16;100.00
37634;BME280;32048;49.902;22.508;2023-03-03T09:26:53;98884.41;;;2.14;100.00
37634;BME280;32048;49.902;22.508;2023-03-03T09:29:28;98882.63;;;2.16;100.00
37634;BME280;32048;49.902;22.508;2023-03-03T09:31:57;98880.06;;;2.13;100.00
37634;BME280;32048;49.902;22.508;2023-03-03T09:34:39;98882.63;;;2.16;100.00
37634;BME280;32048;49.902;22.508;2023-03-03T09:37:27;98882.66;;;2.14;100.00
37634;BME280;32048;49.902;22.508;2023-03-03T09:39:56;98887.00;;;2.14;100.00
37634;BME280;32048;49.902;22.508;2023-03-03T09:45:15;98883.47;;;2.18;100.00
37634;BME280;32048;49.902;22.508;2023-03-03T09:50:47;98875.19;;;2.44;96.28
37634;BME280;32048;49.902;22.508;2023-03-03T09:56:22;98887.69;;;2.76;93.58
37634;BME280;32048;49.902;22.508;2023-03-03T10:04:18;98889.66;;;3.08;89.21
37634;BME280;32048;49.902;22.508;2023-03-03T10:06:59;98897.44;;;3.11;87.74
37634;BME280;32048;49.902;22.508;2023-03-03T10:16:01;98912.94;;;2.73;88.00
37634;BME280;32048;49.902;22.508;2023-03-03T10:24:39;98918.50;;;2.51;92.42
37634;BME280;32048;49.902;22.508;2023-03-03T10:27:36;98911.59;;;2.52;92.53
37634;BME280;32048;49.902;22.508;2023-03-03T10:49:57;98891.66;;;2.96;90.22
37634;BME280;32048;49.902;22.508;2023-03-03T10:52:47;98882.69;;;3.10;89.51
37634;BME280;32048;49.902;22.508;2023-03-03T11:00:56;98889.16;;;3.35;85.80
37634;BME280;32048;49.902;22.508;2023-03-03T11:06:20;98881.09;;;3.45;87.37
37634;BME280;32048;49.902;22.508;2023-03-03T11:12:03;98871.13;;;3.63;87.16
37634;BME280;32048;49.902;22.508;2023-03-03T11:14:43;98872.69;;;3.71;85.96
37634;BME280;32048;49.902;22.508;2023-03-03T11:17:25;98880.25;;;3.84;85.41
37634;BME280;32048;49.902;22.508;2023-03-03T11:20:30;98872.25;;;3.90;83.11
37634;BME280;32048;49.902;22.508;2023-03-03T11:37:39;98855.56;;;3.97;82.00
37634;BME280;32048;49.902;22.508;2023-03-03T11:40:21;98845.22;;;3.92;83.32
37634;BME280;32048;49.902;22.508;2023-03-03T11:45:19;98842.53;;;3.95;83.70
37634;BME280;32048;49.902;22.508;2023-03-03T11:48:03;98841.50;;;4.03;83.02
37634;BME280;32048;49.902;22.508;2023-03-03T11:51:06;98844.91;;;4.06;82.11
37634;BME280;32048;49.902;22.508;2023-03-03T11:53:46;98835.31;;;4.05;81.85
37634;BME280;32048;49.902;22.508;2023-03-03T11:59:13;98829.63;;;4.24;81.21
37634;BME280;32048;49.902;22.508;2023-03-03T12:04:45;98826.13;;;4.25;81.14
37634;BME280;32048;49.902;22.508;2023-03-03T12:07:32;98832.19;;;4.27;80.56
37634;BME280;32048;49.902;22.508;2023-03-03T12:13:00;98820.88;;;4.26;80.29
37634;BME280;32048;49.902;22.508;2023-03-03T12:15:48;98822.09;;;4.13;80.23
37634;BME280;32048;49.902;22.508;2023-03-03T12:18:44;98816.09;;;4.08;81.55
37634;BME280;32048;49.902;22.508;2023-03-03T12:43:55;98807.94;;;4.54;78.78
37634;BME280;32048;49.902;22.508;2023-03-03T12:49:01;98803.81;;;4.46;78.22
37634;BME280;32048;49.902;22.508;2023-03-03T12:54:36;98805.75;;;4.03;79.23
37634;BME280;32048;49.902;22.508;2023-03-03T12:57:15;98799.59;;;4.06;79.65
37634;BME280;32048;49.902;22.508;2023-03-03T13:02:58;98790.38;;;4.27;78.27
37634;BME280;32048;49.902;22.508;2023-03-03T13:05:51;98787.34;;;4.42;77.91
37634;BME280;32048;49.902;22.508;2023-03-03T13:14:09;98784.25;;;5.21;74.52
37634;BME280;32048;49.902;22.508;2023-03-03T13:19:39;98780.34;;;5.07;74.53
37634;BME280;32048;49.902;22.508;2023-03-03T13:27:31;98792.25;;;4.86;76.61
37634;BME280;32048;49.902;22.508;2023-03-03T13:32:45;98782.44;;;4.63;76.81
37634;BME280;32048;49.902;22.508;2023-03-03T13:38:04;98785.88;;;4.32;78.73
37634;BME280;32048;49.902;22.508;2023-03-03T13:43:07;98779.22;;;4.20;80.05
37634;BME280;32048;49.902;22.508;2023-03-03T13:51:13;98777.50;;;3.83;81.52
37634;BME280;32048;49.902;22.508;2023-03-03T13:53:47;98771.56;;;3.77;82.38
37634;BME280;32048;49.902;22.508;2023-03-03T14:05:11;98776.03;;;4.07;80.38
37634;BME280;32048;49.902;22.508;2023-03-03T14:07:48;98783.16;;;4.02;80.34
37634;BME280;32048;49.902;22.508;2023-03-03T14:13:15;98781.41;;;3.65;81.44
37634;BME280;32048;49.902;22.508;2023-03-03T14:15:57;98775.34;;;3.65;81.72
37634;BME280;32048;49.902;22.508;2023-03-03T14:18:32;98778.19;;;3.56;82.22
37634;BME280;32048;49.902;22.508;2023-03-03T14:21:48;98775.66;;;3.52;82.72
37634;BME280;32048;49.902;22.508;2023-03-03T14:24:18;98774.72;;;3.53;83.56
37634;BME280;32048;49.902;22.508;2023-03-03T14:26:58;98770.47;;;3.49;82.97
37634;BME280;32048;49.902;22.508;2023-03-03T14:31:55;98766.50;;;3.33;85.19
37634;BME280;32048;49.902;22.508;2023-03-03T14:36:51;98783.94;;;3.31;85.22
37634;BME280;32048;49.902;22.508;2023-03-03T14:39:31;98766.59;;;3.30;83.72
37634;BME280;32048;49.902;22.508;2023-03-03T14:42:01;98764.84;;;3.30;83.84
37634;BME280;32048;49.902;22.508;2023-03-03T14:44:52;98760.66;;;3.22;84.59
37634;BME280;32048;49.902;22.508;2023-03-03T14:47:27;98757.22;;;3.21;85.66
37634;BME280;32048;49.902;22.508;2023-03-03T14:49:56;98766.72;;;3.24;84.90
37634;BME280;32048;49.902;22.508;2023-03-03T14:52:30;98769.41;;;3.21;85.21
37634;BME280;32048;49.902;22.508;2023-03-03T14:55:00;98773.75;;;3.20;84.50
37634;BME280;32048;49.902;22.508;2023-03-03T15:07:51;98774.81;;;2.69;87.74
37634;BME280;32048;49.902;22.508;2023-03-03T15:10:45;98781.00;;;2.64;87.73
37634;BME280;32048;49.902;22.508;2023-03-03T15:16:04;98775.91;;;2.58;88.77
37634;BME280;32048;49.902;22.508;2023-03-03T15:18:52;98771.84;;;2.43;89.55
37634;BME280;32048;49.902;22.508;2023-03-03T15:21:24;98768.34;;;2.44;90.71
37634;BME280;32048;49.902;22.508;2023-03-03T15:26:51;98764.88;;;2.45;90.21
37634;BME280;32048;49.902;22.508;2023-03-03T15:35:15;98770.19;;;2.39;91.33
37634;BME280;32048;49.902;22.508;2023-03-03T15:38:02;98770.25;;;2.36;91.95
37634;BME280;32048;49.902;22.508;2023-03-03T15:40:50;98778.19;;;2.29;93.13
37634;BME280;32048;49.902;22.508;2023-03-03T16:02:54;98785.00;;;1.85;94.32
37634;BME280;32048;49.902;22.508;2023-03-03T16:05:51;98780.72;;;1.83;94.80
37634;BME280;32048;49.902;22.508;2023-03-03T16:11:33;98782.75;;;1.64;96.89
37634;BME280;32048;49.902;22.508;2023-03-03T16:17:05;98778.78;;;1.40;97.49
37634;BME280;32048;49.902;22.508;2023-03-03T16:19:43;98789.31;;;1.31;97.42
37634;BME280;32048;49.902;22.508;2023-03-03T16:27:49;98792.56;;;0.83;100.00
37634;BME280;32048;49.902;22.508;2023-03-03T16:30:29;98790.09;;;0.69;100.00
37634;BME280;32048;49.902;22.508;2023-03-03T16:35:56;98790.34;;;0.48;100.00
37634;BME280;32048;49.902;22.508;2023-03-03T16:38:50;98789.66;;;0.32;100.00
37634;BME280;32048;49.902;22.508;2023-03-03T16:41:43;98794.94;;;0.23;100.00
37634;BME280;32048;49.902;22.508;2023-03-03T16:46:47;98793.44;;;0.00;100.00
37634;BME280;32048;49.902;22.508;2023-03-03T16:54:48;98795.41;;;-0.33;100.00
37634;BME280;32048;49.902;22.508;2023-03-03T17:00:21;98795.50;;;-0.42;100.00
37634;BME280;32048;49.902;22.508;2023-03-03T17:08:26;98787.78;;;-0.53;100.00
37634;BME280;32048;49.902;22.508;2023-03-03T17:11:14;98788.66;;;-0.54;100.00
37634;BME280;32048;49.902;22.508;2023-03-03T17:14:02;98799.94;;;-0.58;100.00
37634;BME280;32048;49.902;22.508;2023-03-03T17:16:59;98795.59;;;-0.59;100.00
37634;BME280;32048;49.902;22.508;2023-03-03T17:38:48;98819.75;;;-0.49;100.00
37634;BME280;32048;49.902;22.508;2023-03-03T17:41:33;98817.13;;;-0.46;100.00
37634;BME280;32048;49.902;22.508;2023-03-03T17:46:49;98804.97;;;-0.38;100.00
37634;BME280;32048;49.902;22.508;2023-03-03T18:09:34;98803.22;;;-0.33;100.00
37634;BME280;32048;49.902;22.508;2023-03-03T18:12:03;98806.72;;;-0.40;100.00
37634;BME280;32048;49.902;22.508;2023-03-03T18:20:54;98810.28;;;-0.56;100.00